Time;durP1;ratioP1;P1;durP2;ratioP2;P2;SDS_P1;SDS_P2;PMS_P1;PMS_P2;Temp;Humidity;BMP_temperature;BMP_pressure;BME280_temperature;BME280_humidity;BME280_pressure;Samples;Min_cycle;Max_cycle;Signal;HPM_P1;HPM_P2
2023/08/14 00:02:04;;;;;;;7.07;5.97;;;;;;;;;;5009636;28;20042;-76
2023/08/14 00:04:50;;;;;;;7.55;6.07;;;;;;;;;;5010445;28;20053;-78
2023/08/14 00:07:35;;;;;;;8.30;6.22;;;;;;;;;;5010318;28;20396;-77
2023/08/14 00:10:21;;;;;;;12.73;7.28;;;;;;;;;;5009668;28;20045;-77
2023/08/14 00:13:06;;;;;;;7.70;6.90;;;;;;;;;;5010271;28;20042;-77
2023/08/14 00:15:52;;;;;;;10.45;7.15;;;;;;;;;;5009690;28;20409;-76
2023/08/14 00:18:37;;;;;;;10.63;7.00;;;;;;;;;;5009550;28;20046;-77
2023/08/14 00:21:23;;;;;;;9.27;6.68;;;;;;;;;;5012218;28;20054;-77
2023/08/14 00:24:09;;;;;;;11.75;6.85;;;;;;;;;;5011927;28;20034;-77
2023/08/14 00:26:54;;;;;;;11.55;7.43;;;;;;;;;;5011046;28;20046;-82
2023/08/14 00:29:40;;;;;;;8.32;6.70;;;;;;;;;;5012500;28;20489;-77
2023/08/14 00:32:26;;;;;;;12.27;7.57;;;;;;;;;;5012292;28;20034;-78
2023/08/14 00:35:11;;;;;;;10.20;7.30;;;;;;;;;;5016773;28;20041;-77
2023/08/14 00:37:57;;;;;;;11.15;7.53;;;;;;;;;;5012036;28;20477;-79
2023/08/14 00:40:43;;;;;;;9.00;6.65;;;;;;;;;;5011241;28;20038;-79
2023/08/14 00:43:29;;;;;;;8.63;6.80;;;;;;;;;;5004692;28;20050;-78
2023/08/14 00:46:16;;;;;;;9.05;6.82;;;;;;;;;;5004806;28;20050;-78
2023/08/14 00:49:02;;;;;;;7.78;6.75;;;;;;;;;;5018071;28;20408;-77
2023/08/14 00:51:48;;;;;;;9.63;6.65;;;;;;;;;;4984289;28;20489;-78
2023/08/14 00:54:35;;;;;;;14.63;7.22;;;;;;;;;;4984330;28;20045;-80
2023/08/14 00:57:20;;;;;;;7.75;6.75;;;;;;;;;;5012990;28;20053;-78
2023/08/14 01:00:06;;;;;;;9.90;7.05;;;;;;;;;;5010968;28;20046;-78
2023/08/14 01:02:52;;;;;;;10.05;7.22;;;;;;;;;;5019293;28;20050;-78
2023/08/14 01:05:38;;;;;;;10.38;7.25;;;;;;;;;;5012432;28;20046;-77
2023/08/14 01:08:24;;;;;;;8.40;6.78;;;;;;;;;;5004927;28;20489;-79
2023/08/14 01:11:57;;;;;;;10.73;6.75;;;;;;;;;;5011664;28;20058;-79
2023/08/14 01:14:44;;;;;;;12.80;6.63;;;;;;;;;;4985732;28;20038;-81
2023/08/14 01:17:33;;;;;;;8.95;7.25;;;;;;;;;;5012550;28;20053;-78
2023/08/14 01:20:20;;;;;;;9.23;6.78;;;;;;;;;;5017780;28;20050;-78
2023/08/14 01:23:31;;;;;;;9.27;6.45;;;;;;;;;;5012832;28;20465;-78
2023/08/14 01:26:19;;;;;;;9.02;6.70;;;;;;;;;;5019004;28;20053;-78
2023/08/14 01:29:05;;;;;;;8.90;6.65;;;;;;;;;;5004013;28;20042;-81
2023/08/14 01:31:50;;;;;;;9.18;6.03;;;;;;;;;;5011631;28;20046;-79
2023/08/14 01:34:35;;;;;;;7.78;6.55;;;;;;;;;;5003474;28;20488;-78
2023/08/14 01:37:33;;;;;;;7.53;6.32;;;;;;;;;;5003523;28;20489;-78
2023/08/14 01:40:30;;;;;;;10.50;6.82;;;;;;;;;;5012038;28;20046;-79
2023/08/14 01:43:29;;;;;;;7.47;6.07;;;;;;;;;;5012385;28;20041;-79
2023/08/14 01:46:17;;;;;;;7.57;6.47;;;;;;;;;;5012027;28;20083;-76
2023/08/14 01:49:03;;;;;;;8.27;6.60;;;;;;;;;;5003493;28;20038;-77
2023/08/14 01:51:50;;;;;;;9.10;6.68;;;;;;;;;;5003225;28;20075;-80
2023/08/14 01:54:35;;;;;;;11.13;6.65;;;;;;;;;;5011736;28;20054;-79
2023/08/14 01:57:20;;;;;;;7.55;6.45;;;;;;;;;;5012305;28;20541;-78
2023/08/14 02:00:09;;;;;;;8.07;6.13;;;;;;;;;;5001015;28;20421;-78
2023/08/14 02:02:57;;;;;;;7.97;6.10;;;;;;;;;;5011682;28;20042;-79
2023/08/14 02:05:43;;;;;;;8.48;6.65;;;;;;;;;;5011870;28;20053;-77
2023/08/14 02:08:28;;;;;;;9.38;6.70;;;;;;;;;;5003433;28;20065;-80
2023/08/14 02:11:14;;;;;;;7.38;6.47;;;;;;;;;;5001695;28;20540;-79
2023/08/14 02:13:59;;;;;;;7.75;6.95;;;;;;;;;;5006268;28;20046;-76
2023/08/14 02:16:45;;;;;;;9.93;7.45;;;;;;;;;;5006263;28;20041;-77
2023/08/14 02:19:31;;;;;;;8.35;6.90;;;;;;;;;;5012229;28;20046;-78
2023/08/14 02:22:16;;;;;;;9.48;7.18;;;;;;;;;;5006285;28;20393;-77
2023/08/14 02:25:01;;;;;;;12.65;7.18;;;;;;;;;;4998309;28;20053;-78
2023/08/14 02:27:48;;;;;;;14.88;7.40;;;;;;;;;;4998418;28;20049;-78
2023/08/14 02:30:43;;;;;;;12.15;7.25;;;;;;;;;;5007006;28;20049;-76
2023/08/14 02:33:28;;;;;;;7.93;6.50;;;;;;;;;;4998410;28;20420;-77
2023/08/14 02:36:14;;;;;;;9.98;6.68;;;;;;;;;;5006162;28;20045;-77
2023/08/14 02:38:59;;;;;;;11.20;6.57;;;;;;;;;;5005724;28;20045;-77
2023/08/14 02:41:45;;;;;;;8.07;6.72;;;;;;;;;;5005339;28;20050;-78
2023/08/14 02:44:31;;;;;;;8.80;6.70;;;;;;;;;;4996289;28;20049;-78
2023/08/14 02:47:17;;;;;;;7.53;6.63;;;;;;;;;;5005037;28;20054;-78
2023/08/14 02:50:02;;;;;;;8.95;7.35;;;;;;;;;;5005288;28;21427;-78
2023/08/14 02:52:50;;;;;;;9.25;7.18;;;;;;;;;;5011728;28;20050;-78
2023/08/14 02:55:35;;;;;;;8.93;7.45;;;;;;;;;;4998100;28;20054;-77
2023/08/14 02:59:11;;;;;;;7.95;6.70;;;;;;;;;;5001855;28;20049;-78
2023/08/14 03:01:56;;;;;;;29.48;7.63;;;;;;;;;;5009731;28;20057;-78
2023/08/14 03:04:41;;;;;;;9.27;7.25;;;;;;;;;;5003389;28;20046;-76
2023/08/14 03:07:27;;;;;;;8.30;7.20;;;;;;;;;;5013480;28;20038;-77
2023/08/14 03:10:13;;;;;;;9.75;6.95;;;;;;;;;;5003902;28;20049;-77
2023/08/14 03:13:01;;;;;;;8.63;6.65;;;;;;;;;;5005643;28;20042;-76
2023/08/14 03:15:46;;;;;;;10.75;7.13;;;;;;;;;;5004479;28;20393;-79
2023/08/14 03:18:32;;;;;;;9.52;7.13;;;;;;;;;;5013373;28;20481;-77
2023/08/14 03:21:17;;;;;;;9.07;6.93;;;;;;;;;;5014326;28;20054;-76
2023/08/14 03:24:03;;;;;;;12.77;6.93;;;;;;;;;;5011767;28;20042;-81
2023/08/14 03:26:49;;;;;;;8.20;6.70;;;;;;;;;;5010085;28;20061;-78
2023/08/14 03:29:34;;;;;;;11.07;7.43;;;;;;;;;;5001988;28;20046;-76
2023/08/14 03:32:57;;;;;;;10.55;7.18;;;;;;;;;;5012874;28;20046;-77
2023/08/14 03:35:42;;;;;;;8.93;7.10;;;;;;;;;;5001175;28;20050;-78
2023/08/14 03:38:30;;;;;;;9.77;7.22;;;;;;;;;;5000555;28;20050;-79
2023/08/14 03:41:18;;;;;;;10.27;7.63;;;;;;;;;;5014832;28;20042;-77
2023/08/14 03:44:03;;;;;;;11.63;7.80;;;;;;;;;;5008908;28;20038;-78
2023/08/14 03:46:48;;;;;;;12.98;7.55;;;;;;;;;;5000241;28;20477;-78
2023/08/14 03:49:33;;;;;;;10.82;7.20;;;;;;;;;;5000058;28;20050;-78
2023/08/14 03:52:20;;;;;;;12.05;7.25;;;;;;;;;;4999678;28;20042;-78
2023/08/14 03:55:05;;;;;;;10.73;7.38;;;;;;;;;;5010975;28;20057;-77
2023/08/14 03:57:51;;;;;;;11.00;7.35;;;;;;;;;;5012701;28;20042;-77
2023/08/14 04:00:36;;;;;;;13.10;7.45;;;;;;;;;;5013351;28;20045;-77
2023/08/14 04:03:23;;;;;;;10.65;7.28;;;;;;;;;;5013769;28;20049;-78
2023/08/14 04:06:09;;;;;;;12.30;7.32;;;;;;;;;;5013586;28;20042;-80
2023/08/14 04:08:54;;;;;;;9.40;6.85;;;;;;;;;;5005182;28;20054;-79
2023/08/14 04:11:40;;;;;;;9.80;6.95;;;;;;;;;;5004942;28;20042;-78
2023/08/14 04:14:25;;;;;;;9.30;7.07;;;;;;;;;;5005442;28;20050;-77
2023/08/14 04:17:11;;;;;;;10.75;6.97;;;;;;;;;;5013555;28;20416;-79
2023/08/14 04:19:56;;;;;;;8.43;7.30;;;;;;;;;;5005334;28;20046;-78
2023/08/14 04:22:41;;;;;;;12.98;8.13;;;;;;;;;;5013950;28;20046;-78
2023/08/14 04:25:28;;;;;;;15.73;9.38;;;;;;;;;;5005606;28;20054;-77
2023/08/14 04:28:13;;;;;;;9.63;7.93;;;;;;;;;;5013258;28;20037;-78
2023/08/14 04:30:59;;;;;;;14.23;8.45;;;;;;;;;;5012489;28;20053;-76
2023/08/14 04:33:44;;;;;;;11.25;7.55;;;;;;;;;;5010551;28;20042;-77
2023/08/14 04:36:32;;;;;;;12.07;7.72;;;;;;;;;;5004888;28;20469;-77
2023/08/14 04:39:18;;;;;;;11.50;8.10;;;;;;;;;;5013482;28;20034;-78
2023/08/14 04:42:03;;;;;;;11.50;7.57;;;;;;;;;;5019348;28;20049;-79
2023/08/14 04:44:48;;;;;;;15.35;7.82;;;;;;;;;;5018965;28;20497;-78
2023/08/14 04:47:34;;;;;;;13.70;7.60;;;;;;;;;;5013371;28;20058;-78
2023/08/14 04:50:20;;;;;;;10.38;7.18;;;;;;;;;;5004815;28;20050;-76
2023/08/14 04:53:06;;;;;;;10.75;7.50;;;;;;;;;;5005139;28;20042;-77
2023/08/14 04:55:52;;;;;;;10.27;6.75;;;;;;;;;;5004519;28;20668;-77
2023/08/14 04:58:37;;;;;;;18.48;7.45;;;;;;;;;;5004880;28;20469;-77
2023/08/14 05:01:23;;;;;;;10.10;6.70;;;;;;;;;;5011903;28;20466;-80
2023/08/14 05:04:11;;;;;;;13.98;6.68;;;;;;;;;;5003576;28;20046;-78
2023/08/14 05:06:57;;;;;;;12.98;6.43;;;;;;;;;;5001517;28;20054;-78
2023/08/14 05:09:43;;;;;;;12.25;6.70;;;;;;;;;;5003779;28;20054;-78
2023/08/14 05:12:28;;;;;;;11.07;6.00;;;;;;;;;;4997473;28;20046;-78
2023/08/14 05:15:14;;;;;;;10.60;6.47;;;;;;;;;;4983157;28;20046;-78
2023/08/14 05:18:00;;;;;;;11.85;6.03;;;;;;;;;;5003615;28;20473;-77
2023/08/14 05:20:46;;;;;;;10.00;6.00;;;;;;;;;;5003940;28;20049;-78
2023/08/14 05:23:32;;;;;;;7.40;5.20;;;;;;;;;;5011049;28;20473;-78
2023/08/14 05:26:17;;;;;;;8.57;5.35;;;;;;;;;;5011609;28;20046;-77
2023/08/14 05:29:03;;;;;;;6.63;5.22;;;;;;;;;;5011456;28;20046;-78
2023/08/14 05:31:49;;;;;;;9.75;5.38;;;;;;;;;;5010747;28;20049;-78
2023/08/14 05:34:34;;;;;;;10.63;5.95;;;;;;;;;;4997212;28;20049;-78
2023/08/14 05:37:20;;;;;;;10.13;6.07;;;;;;;;;;5010783;28;20045;-78
2023/08/14 05:40:06;;;;;;;10.43;5.60;;;;;;;;;;5009597;28;20042;-77
2023/08/14 05:43:06;;;;;;;10.73;5.65;;;;;;;;;;5011265;28;20046;-78
2023/08/14 05:45:51;;;;;;;9.23;5.40;;;;;;;;;;5010793;28;20054;-78
2023/08/14 05:48:37;;;;;;;9.35;5.43;;;;;;;;;;5010617;28;20042;-77
2023/08/14 05:51:23;;;;;;;10.98;6.35;;;;;;;;;;5010193;28;20046;-78
2023/08/14 05:54:08;;;;;;;13.85;6.47;;;;;;;;;;5010077;28;20037;-78
2023/08/14 05:56:54;;;;;;;11.38;6.00;;;;;;;;;;5008030;28;20062;-78
2023/08/14 05:59:39;;;;;;;15.10;6.07;;;;;;;;;;5010251;28;20038;-81
2023/08/14 06:02:25;;;;;;;9.90;5.57;;;;;;;;;;5008395;28;20397;-79
2023/08/14 06:05:11;;;;;;;17.15;5.97;;;;;;;;;;4992212;28;20046;-78
2023/08/14 06:07:56;;;;;;;7.18;5.38;;;;;;;;;;5006514;28;20046;-80
2023/08/14 06:10:42;;;;;;;6.70;5.45;;;;;;;;;;5006209;28;20401;-78
2023/08/14 06:13:27;;;;;;;10.02;5.47;;;;;;;;;;5005843;28;20617;-78
2023/08/14 06:16:13;;;;;;;9.45;4.88;;;;;;;;;;5005379;28;20037;-77
2023/08/14 06:18:58;;;;;;;8.95;5.03;;;;;;;;;;5005883;28;20042;-77
2023/08/14 06:21:44;;;;;;;6.28;5.10;;;;;;;;;;5005713;28;20481;-78
2023/08/14 06:24:30;;;;;;;6.78;4.60;;;;;;;;;;5004140;28;20397;-77
2023/08/14 06:27:15;;;;;;;13.55;5.00;;;;;;;;;;5008587;28;20397;-78
2023/08/14 06:30:01;;;;;;;8.65;5.20;;;;;;;;;;4992425;28;20046;-78
2023/08/14 06:32:46;;;;;;;7.63;5.00;;;;;;;;;;5011145;28;20053;-77
2023/08/14 06:35:32;;;;;;;8.75;5.50;;;;;;;;;;5011018;28;20037;-79
2023/08/14 06:38:18;;;;;;;8.20;5.20;;;;;;;;;;5010283;28;20042;-77
2023/08/14 06:41:03;;;;;;;8.05;5.32;;;;;;;;;;5010711;28;20034;-78
2023/08/14 06:43:49;;;;;;;6.72;5.15;;;;;;;;;;5011005;28;20393;-78
2023/08/14 06:46:35;;;;;;;9.18;5.13;;;;;;;;;;5011047;28;20045;-80
2023/08/14 06:49:20;;;;;;;9.38;5.68;;;;;;;;;;5010267;28;20041;-80
2023/08/14 06:52:06;;;;;;;8.05;4.57;;;;;;;;;;5009812;28;20046;-77
2023/08/14 06:54:52;;;;;;;8.13;4.78;;;;;;;;;;5010515;28;20045;-78
2023/08/14 06:57:38;;;;;;;8.88;5.05;;;;;;;;;;5008258;28;20042;-79
2023/08/14 07:00:23;;;;;;;8.40;5.20;;;;;;;;;;5004563;28;20050;-79
2023/08/14 07:03:09;;;;;;;10.60;5.50;;;;;;;;;;5003964;28;20050;-80
2023/08/14 07:05:55;;;;;;;8.93;5.30;;;;;;;;;;5004042;28;20045;-79
2023/08/14 07:08:40;;;;;;;9.30;5.25;;;;;;;;;;5003391;28;20408;-78
2023/08/14 07:11:26;;;;;;;8.65;4.75;;;;;;;;;;5002636;28;20497;-79
2023/08/14 07:14:11;;;;;;;6.57;4.95;;;;;;;;;;5002779;28;20038;-82
2023/08/14 07:16:57;;;;;;;7.85;5.35;;;;;;;;;;5004914;28;20046;-79
2023/08/14 07:19:42;;;;;;;7.93;5.30;;;;;;;;;;5004530;28;20042;-79
2023/08/14 07:22:28;;;;;;;7.32;5.43;;;;;;;;;;4988741;28;20389;-78
2023/08/14 07:25:13;;;;;;;9.35;5.00;;;;;;;;;;5004016;28;20042;-78
2023/08/14 07:27:59;;;;;;;7.22;4.93;;;;;;;;;;5005026;28;20481;-79
2023/08/14 07:30:45;;;;;;;9.80;5.20;;;;;;;;;;5003383;28;20045;-80
2023/08/14 07:33:31;;;;;;;7.72;5.07;;;;;;;;;;4996135;28;20038;-78
2023/08/14 07:36:16;;;;;;;8.77;4.82;;;;;;;;;;5004226;28;20050;-77
2023/08/14 07:39:02;;;;;;;7.53;4.82;;;;;;;;;;5004390;28;20054;-76
2023/08/14 07:41:47;;;;;;;7.68;4.85;;;;;;;;;;5004094;28;20049;-78
2023/08/14 07:44:33;;;;;;;9.48;5.25;;;;;;;;;;5003918;28;20041;-78
2023/08/14 07:47:19;;;;;;;6.90;4.68;;;;;;;;;;5003970;28;20034;-77
2023/08/14 07:50:04;;;;;;;9.63;4.75;;;;;;;;;;5003861;28;20062;-77
2023/08/14 07:52:50;;;;;;;5.95;4.97;;;;;;;;;;5003982;28;20049;-79
2023/08/14 07:55:35;;;;;;;7.28;4.72;;;;;;;;;;5004614;28;20050;-78
2023/08/14 07:58:21;;;;;;;7.78;4.53;;;;;;;;;;5004135;28;20775;-78
2023/08/14 08:01:06;;;;;;;8.35;4.30;;;;;;;;;;5003429;28;20049;-77
2023/08/14 08:03:52;;;;;;;9.13;4.47;;;;;;;;;;5003903;28;20050;-80
2023/08/14 08:06:37;;;;;;;16.17;4.80;;;;;;;;;;4991141;28;20038;-80
2023/08/14 08:09:23;;;;;;;7.53;4.60;;;;;;;;;;5005940;28;20042;-79
2023/08/14 08:12:09;;;;;;;7.15;4.50;;;;;;;;;;5005316;28;20037;-79
2023/08/14 08:14:55;;;;;;;6.97;4.57;;;;;;;;;;4997285;28;20045;-77
2023/08/14 08:17:40;;;;;;;11.13;4.47;;;;;;;;;;5004424;28;20168;-79
2023/08/14 08:20:26;;;;;;;4.90;3.90;;;;;;;;;;5004477;28;20050;-79
2023/08/14 08:23:11;;;;;;;6.68;3.92;;;;;;;;;;5004441;28;20038;-77
2023/08/14 08:25:56;;;;;;;6.97;3.75;;;;;;;;;;4997067;28;20041;-80
2023/08/14 08:28:42;;;;;;;8.35;3.92;;;;;;;;;;4991149;28;20041;-79
2023/08/14 08:31:28;;;;;;;5.45;4.45;;;;;;;;;;5005865;28;20049;-79
2023/08/14 08:34:15;;;;;;;10.68;4.32;;;;;;;;;;5004058;28;20046;-79
2023/08/14 08:37:00;;;;;;;7.63;3.50;;;;;;;;;;5003299;28;20034;-80
2023/08/14 08:39:45;;;;;;;12.15;3.85;;;;;;;;;;5004670;28;20041;-77
2023/08/14 08:42:31;;;;;;;5.63;3.55;;;;;;;;;;5007278;28;20042;-78
2023/08/14 08:45:18;;;;;;;8.95;4.10;;;;;;;;;;4999859;28;20050;-78
2023/08/14 08:48:05;;;;;;;5.00;3.28;;;;;;;;;;5008423;28;20053;-79
2023/08/14 08:50:53;;;;;;;11.63;3.90;;;;;;;;;;5013474;28;20046;-78
2023/08/14 08:53:39;;;;;;;8.25;4.22;;;;;;;;;;5008236;28;20042;-78
2023/08/14 08:56:26;;;;;;;5.70;3.85;;;;;;;;;;5014306;28;20045;-78
2023/08/14 08:59:13;;;;;;;7.07;4.20;;;;;;;;;;5008456;28;20038;-81
2023/08/14 09:01:59;;;;;;;6.03;4.10;;;;;;;;;;5007721;28;20041;-79
2023/08/14 09:04:44;;;;;;;7.00;4.15;;;;;;;;;;5007642;28;20892;-78
2023/08/14 09:07:29;;;;;;;5.95;4.00;;;;;;;;;;5007836;28;20049;-79
2023/08/14 09:10:15;;;;;;;8.70;4.03;;;;;;;;;;5005945;28;20046;-78
2023/08/14 09:13:01;;;;;;;5.65;3.75;;;;;;;;;;5006778;28;20429;-78
2023/08/14 09:15:46;;;;;;;5.38;3.90;;;;;;;;;;5007383;28;20038;-79
2023/08/14 09:18:31;;;;;;;6.65;4.10;;;;;;;;;;5008597;28;20481;-81
2023/08/14 09:21:17;;;;;;;5.93;4.20;;;;;;;;;;4993973;28;20041;-80
2023/08/14 09:24:03;;;;;;;5.53;3.78;;;;;;;;;;5008790;28;20057;-78
2023/08/14 09:26:49;;;;;;;6.15;3.85;;;;;;;;;;5006427;28;20496;-79
2023/08/14 09:29:39;;;;;;;11.63;4.25;;;;;;;;;;5007137;28;20046;-78
2023/08/14 09:32:25;;;;;;;8.35;4.20;;;;;;;;;;4992623;28;20484;-76
2023/08/14 09:35:10;;;;;;;9.75;4.13;;;;;;;;;;5006488;28;20046;-77
2023/08/14 09:37:56;;;;;;;7.22;5.05;;;;;;;;;;5006464;28;20823;-82
2023/08/14 09:40:42;;;;;;;6.97;4.10;;;;;;;;;;5007437;28;20050;-78
2023/08/14 09:43:30;;;;;;;6.45;4.03;;;;;;;;;;5007750;28;20038;-77
2023/08/14 09:46:19;;;;;;;9.98;4.45;;;;;;;;;;5008054;28;20046;-77
2023/08/14 09:49:05;;;;;;;8.07;4.18;;;;;;;;;;5006374;28;20061;-79
2023/08/14 09:51:57;;;;;;;8.40;4.32;;;;;;;;;;5007258;28;20488;-78
2023/08/14 09:54:42;;;;;;;5.57;3.63;;;;;;;;;;5007418;28;20046;-78
2023/08/14 09:57:28;;;;;;;7.25;4.25;;;;;;;;;;5007409;28;20049;-79
2023/08/14 10:00:14;;;;;;;8.18;3.40;;;;;;;;;;5003891;28;20042;-79
2023/08/14 10:03:00;;;;;;;8.32;3.45;;;;;;;;;;5006055;28;20041;-81
2023/08/14 10:05:45;;;;;;;5.28;3.70;;;;;;;;;;4997835;28;20049;-78
2023/08/14 10:08:34;;;;;;;9.52;3.90;;;;;;;;;;4999183;28;20477;-76
2023/08/14 10:11:22;;;;;;;7.10;3.75;;;;;;;;;;5005745;28;20101;-80
2023/08/14 10:14:12;;;;;;;6.72;4.03;;;;;;;;;;5006460;28;20046;-79
2023/08/14 10:17:00;;;;;;;7.10;4.32;;;;;;;;;;5006263;28;20469;-79
2023/08/14 10:19:51;;;;;;;6.93;3.42;;;;;;;;;;5013447;28;20042;-78
2023/08/14 10:22:39;;;;;;;4.75;3.65;;;;;;;;;;5007528;28;20050;-82
2023/08/14 10:25:25;;;;;;;9.40;3.55;;;;;;;;;;5006660;28;20041;-77
2023/08/14 10:28:11;;;;;;;6.25;3.45;;;;;;;;;;5006786;28;20050;-79
2023/08/14 10:30:58;;;;;;;7.20;3.80;;;;;;;;;;5006799;28;20795;-79
2023/08/14 10:33:44;;;;;;;5.95;3.42;;;;;;;;;;4991715;28;20546;-78
2023/08/14 10:36:30;;;;;;;8.18;3.20;;;;;;;;;;5006618;28;20049;-78
2023/08/14 10:39:14;;;;;;;5.13;3.20;;;;;;;;;;5006788;28;20050;-81
2023/08/14 10:42:00;;;;;;;7.05;3.17;;;;;;;;;;4991457;28;20481;-79
2023/08/14 10:44:45;;;;;;;7.90;3.22;;;;;;;;;;5006593;28;20050;-80
2023/08/14 10:47:30;;;;;;;6.20;3.08;;;;;;;;;;5006662;28;20038;-79
2023/08/14 10:50:22;;;;;;;5.82;2.95;;;;;;;;;;5006019;28;20042;-77
2023/08/14 10:53:10;;;;;;;5.07;3.13;;;;;;;;;;5006368;28;20034;-78
2023/08/14 10:55:58;;;;;;;12.75;3.45;;;;;;;;;;5007026;28;20045;-79
2023/08/14 10:58:49;;;;;;;6.93;3.47;;;;;;;;;;5006840;28;21014;-78
2023/08/14 11:01:36;;;;;;;6.78;3.40;;;;;;;;;;5006529;28;20045;-77
2023/08/14 11:04:22;;;;;;;5.78;3.20;;;;;;;;;;4997156;28;20050;-77
2023/08/14 11:07:11;;;;;;;7.25;3.40;;;;;;;;;;5005919;28;20046;-78
2023/08/14 11:09:57;;;;;;;4.45;3.00;;;;;;;;;;5006445;28;20072;-79
2023/08/14 11:12:42;;;;;;;7.10;3.70;;;;;;;;;;4991542;28;20046;-78
2023/08/14 11:15:30;;;;;;;5.88;3.63;;;;;;;;;;5005833;28;20053;-80
2023/08/14 11:18:19;;;;;;;4.68;3.42;;;;;;;;;;5005993;28;20049;-82
2023/08/14 11:21:05;;;;;;;7.10;3.58;;;;;;;;;;5006031;28;20045;-77
2023/08/14 11:23:51;;;;;;;5.93;3.30;;;;;;;;;;4984158;28;20050;-79
2023/08/14 11:26:36;;;;;;;5.32;2.97;;;;;;;;;;5006218;28;20038;-78
2023/08/14 11:29:22;;;;;;;3.95;2.90;;;;;;;;;;5005573;28;20057;-78
2023/08/14 11:32:07;;;;;;;5.80;2.95;;;;;;;;;;5005063;28;20038;-78
2023/08/14 11:34:53;;;;;;;6.05;2.63;;;;;;;;;;5009430;28;20046;-77
2023/08/14 11:37:40;;;;;;;6.40;2.92;;;;;;;;;;5004954;28;20034;-77
2023/08/14 11:40:26;;;;;;;9.23;2.90;;;;;;;;;;5005173;28;20702;-78
2023/08/14 11:43:12;;;;;;;5.55;2.90;;;;;;;;;;5005702;28;20061;-76
2023/08/14 11:45:57;;;;;;;6.20;3.05;;;;;;;;;;5004797;28;20054;-78
2023/08/14 11:48:42;;;;;;;6.75;2.92;;;;;;;;;;5005709;28;20049;-79
2023/08/14 11:51:29;;;;;;;6.93;3.20;;;;;;;;;;5005610;28;20046;-77
2023/08/14 11:54:15;;;;;;;6.18;3.08;;;;;;;;;;5005200;28;20050;-78
2023/08/14 11:57:04;;;;;;;3.78;3.10;;;;;;;;;;5004618;28;20045;-79
2023/08/14 11:59:49;;;;;;;3.95;2.90;;;;;;;;;;5004434;28;20054;-79
2023/08/14 12:02:35;;;;;;;6.90;3.10;;;;;;;;;;5005890;28;20054;-79
2023/08/14 12:05:21;;;;;;;3.67;2.65;;;;;;;;;;5005973;28;20058;-81
2023/08/14 12:08:06;;;;;;;8.65;3.53;;;;;;;;;;5005509;28;20046;-76
2023/08/14 12:10:53;;;;;;;5.57;2.80;;;;;;;;;;5005278;28;20042;-79
2023/08/14 12:13:38;;;;;;;4.05;3.30;;;;;;;;;;5005370;28;20046;-77
2023/08/14 12:16:24;;;;;;;7.50;2.97;;;;;;;;;;5007538;28;20381;-79
2023/08/14 12:19:09;;;;;;;5.43;2.95;;;;;;;;;;5008713;28;20037;-78
2023/08/14 12:21:56;;;;;;;7.20;3.13;;;;;;;;;;5008226;28;20045;-78
2023/08/14 12:24:43;;;;;;;4.05;3.00;;;;;;;;;;5008175;28;20038;-77
2023/08/14 12:27:28;;;;;;;4.80;2.90;;;;;;;;;;5008322;28;20464;-78
2023/08/14 12:30:14;;;;;;;7.97;3.53;;;;;;;;;;5007124;28;20058;-78
2023/08/14 12:32:59;;;;;;;6.07;3.20;;;;;;;;;;5009209;28;20038;-79
2023/08/14 12:35:45;;;;;;;7.22;2.80;;;;;;;;;;5008919;28;20054;-79
2023/08/14 12:38:30;;;;;;;7.22;3.00;;;;;;;;;;5006970;28;20041;-77
2023/08/14 12:41:16;;;;;;;14.77;3.33;;;;;;;;;;5008926;28;20045;-77
2023/08/14 12:44:02;;;;;;;5.72;3.15;;;;;;;;;;5015456;28;20061;-77
2023/08/14 12:46:47;;;;;;;7.05;3.10;;;;;;;;;;5010232;28;20038;-77
2023/08/14 12:49:35;;;;;;;3.55;2.95;;;;;;;;;;5004033;28;20041;-80
2023/08/14 12:52:19;;;;;;;6.38;2.72;;;;;;;;;;5017975;28;20042;-77
2023/08/14 12:55:05;;;;;;;3.85;2.78;;;;;;;;;;5011661;28;20046;-78
2023/08/14 12:57:51;;;;;;;4.32;2.67;;;;;;;;;;5011953;28;20061;-79
2023/08/14 13:00:36;;;;;;;3.40;2.80;;;;;;;;;;5011823;28;20050;-77
2023/08/14 13:03:21;;;;;;;4.78;2.92;;;;;;;;;;5011109;28;20042;-78
2023/08/14 13:06:07;;;;;;;6.57;2.85;;;;;;;;;;5011228;28;20041;-79
2023/08/14 13:08:52;;;;;;;8.40;3.10;;;;;;;;;;5011532;28;20497;-81
2023/08/14 13:11:38;;;;;;;5.95;3.10;;;;;;;;;;5011358;28;20034;-77
2023/08/14 13:14:23;;;;;;;3.60;2.70;;;;;;;;;;5011105;28;20042;-79
2023/08/14 13:17:09;;;;;;;7.90;2.80;;;;;;;;;;5011276;28;20425;-77
2023/08/14 13:19:55;;;;;;;6.28;2.95;;;;;;;;;;5011191;28;20563;-79
2023/08/14 13:22:40;;;;;;;5.20;3.38;;;;;;;;;;5009685;28;20046;-77
2023/08/14 13:25:25;;;;;;;4.43;2.92;;;;;;;;;;5012066;28;20049;-78
2023/08/14 13:28:11;;;;;;;4.63;3.00;;;;;;;;;;5011291;28;20045;-77
2023/08/14 13:30:57;;;;;;;5.20;3.13;;;;;;;;;;5012404;28;20038;-79
2023/08/14 13:33:42;;;;;;;14.30;3.22;;;;;;;;;;5011866;28;20038;-78
2023/08/14 13:36:28;;;;;;;5.97;2.92;;;;;;;;;;5011157;28;20026;-79
2023/08/14 13:39:16;;;;;;;3.88;2.80;;;;;;;;;;5011870;28;20314;-78
2023/08/14 13:42:01;;;;;;;5.00;3.20;;;;;;;;;;5012157;28;20037;-79
2023/08/14 13:44:47;;;;;;;6.82;3.10;;;;;;;;;;5012073;28;20046;-77
2023/08/14 13:47:32;;;;;;;10.57;3.30;;;;;;;;;;5011866;28;20046;-77
2023/08/14 13:50:18;;;;;;;4.63;3.13;;;;;;;;;;5010401;28;20037;-78
2023/08/14 13:53:04;;;;;;;5.90;2.97;;;;;;;;;;5011815;28;20489;-77
2023/08/14 13:55:50;;;;;;;6.22;2.92;;;;;;;;;;5009931;28;20050;-78
2023/08/14 13:58:35;;;;;;;4.47;3.10;;;;;;;;;;5010423;28;20042;-78
2023/08/14 14:01:21;;;;;;;5.00;2.78;;;;;;;;;;5010047;28;20046;-78
2023/08/14 14:04:08;;;;;;;3.28;2.78;;;;;;;;;;5010766;28;20489;-77
2023/08/14 14:06:53;;;;;;;5.18;2.95;;;;;;;;;;5009270;28;20037;-78
2023/08/14 14:09:40;;;;;;;11.48;3.33;;;;;;;;;;5010369;28;20046;-78
2023/08/14 14:12:27;;;;;;;3.70;2.50;;;;;;;;;;5010490;28;20042;-78
2023/08/14 14:15:13;;;;;;;3.13;2.60;;;;;;;;;;5011534;28;20042;-77
2023/08/14 14:17:59;;;;;;;4.72;2.70;;;;;;;;;;5011125;28;20034;-78
2023/08/14 14:20:45;;;;;;;5.63;2.53;;;;;;;;;;5011326;28;20041;-80
2023/08/14 14:23:31;;;;;;;7.63;3.95;;;;;;;;;;5011329;28;20042;-77
2023/08/14 14:26:16;;;;;;;6.15;2.78;;;;;;;;;;5011560;28;20393;-78
2023/08/14 14:29:02;;;;;;;7.00;2.90;;;;;;;;;;5011169;28;20045;-80
2023/08/14 14:31:48;;;;;;;5.13;2.97;;;;;;;;;;5006811;28;20042;-76
2023/08/14 14:34:33;;;;;;;7.53;3.05;;;;;;;;;;5003431;28;20046;-80
2023/08/14 14:37:19;;;;;;;6.03;3.00;;;;;;;;;;4983569;28;20401;-78
2023/08/14 14:40:06;;;;;;;5.15;2.60;;;;;;;;;;5004720;28;20054;-79
2023/08/14 14:42:51;;;;;;;6.95;2.95;;;;;;;;;;5010894;28;20054;-77
2023/08/14 14:45:41;;;;;;;6.00;2.88;;;;;;;;;;5005049;28;20054;-80
2023/08/14 14:48:26;;;;;;;8.10;3.20;;;;;;;;;;5005532;28;20053;-79
2023/08/14 14:51:11;;;;;;;4.07;2.60;;;;;;;;;;5004004;28;20054;-80
2023/08/14 14:53:57;;;;;;;4.22;2.63;;;;;;;;;;5005744;28;20085;-78
2023/08/14 14:56:43;;;;;;;5.00;3.15;;;;;;;;;;5005088;28;20097;-77
2023/08/14 14:59:28;;;;;;;6.03;2.55;;;;;;;;;;5005319;28;20419;-77
2023/08/14 15:02:15;;;;;;;4.90;2.80;;;;;;;;;;5005558;28;20474;-78
2023/08/14 15:05:00;;;;;;;6.65;2.70;;;;;;;;;;5005189;28;20054;-79
2023/08/14 15:07:46;;;;;;;5.78;2.75;;;;;;;;;;5005339;28;20046;-78
2023/08/14 15:10:35;;;;;;;3.58;2.50;;;;;;;;;;5006417;28;20042;-79
2023/08/14 15:13:21;;;;;;;3.35;2.60;;;;;;;;;;5005421;28;20046;-76
2023/08/14 15:16:08;;;;;;;3.30;2.50;;;;;;;;;;4990554;28;20504;-76
2023/08/14 15:18:54;;;;;;;4.47;2.63;;;;;;;;;;5005300;28;20049;-78
2023/08/14 15:21:39;;;;;;;5.40;2.40;;;;;;;;;;5004995;28;20492;-79
2023/08/14 15:24:25;;;;;;;5.05;2.67;;;;;;;;;;5005984;28;20050;-78
2023/08/14 15:27:10;;;;;;;4.65;2.55;;;;;;;;;;5004960;28;20050;-79
2023/08/14 15:29:56;;;;;;;3.13;2.58;;;;;;;;;;5011466;28;20493;-76
2023/08/14 15:32:41;;;;;;;8.20;2.63;;;;;;;;;;5005862;28;20504;-77
2023/08/14 15:35:27;;;;;;;3.10;2.70;;;;;;;;;;5009978;28;20046;-80
2023/08/14 15:38:13;;;;;;;4.82;2.97;;;;;;;;;;5005226;28;20034;-78
2023/08/14 15:40:59;;;;;;;6.60;3.08;;;;;;;;;;5005569;28;20690;-76
2023/08/14 15:43:45;;;;;;;5.75;3.33;;;;;;;;;;5006113;28;20069;-77
2023/08/14 15:46:30;;;;;;;6.43;2.90;;;;;;;;;;5004313;28;20038;-76
2023/08/14 15:49:16;;;;;;;6.45;2.88;;;;;;;;;;5004443;28;20050;-77
2023/08/14 15:52:02;;;;;;;7.10;2.80;;;;;;;;;;5014117;28;20057;-78
2023/08/14 15:54:47;;;;;;;3.45;2.53;;;;;;;;;;5014478;28;20037;-78
2023/08/14 15:57:33;;;;;;;4.72;2.58;;;;;;;;;;5012190;28;20042;-77
2023/08/14 16:00:19;;;;;;;4.93;3.10;;;;;;;;;;5014041;28;20046;-80
2023/08/14 16:03:05;;;;;;;6.85;2.83;;;;;;;;;;5013587;28;20046;-76
2023/08/14 16:06:00;;;;;;;6.22;3.50;;;;;;;;;;5014519;28;20054;-78
2023/08/14 16:08:46;;;;;;;4.07;2.83;;;;;;;;;;5014302;28;20050;-76
2023/08/14 16:11:32;;;;;;;7.60;3.22;;;;;;;;;;5010181;28;20042;-78
2023/08/14 16:14:17;;;;;;;7.93;2.90;;;;;;;;;;5006968;28;20038;-76
2023/08/14 16:17:03;;;;;;;7.22;2.80;;;;;;;;;;5008501;28;20485;-75
2023/08/14 16:19:48;;;;;;;4.63;2.80;;;;;;;;;;5008583;28;20065;-76
2023/08/14 16:22:34;;;;;;;5.30;2.60;;;;;;;;;;5008085;28;20042;-78
2023/08/14 16:25:19;;;;;;;5.68;3.03;;;;;;;;;;5008068;28;20046;-78
2023/08/14 16:28:05;;;;;;;12.32;3.10;;;;;;;;;;5007815;28;20058;-80
2023/08/14 16:30:51;;;;;;;5.55;3.10;;;;;;;;;;5008373;28;20042;-80
2023/08/14 16:33:36;;;;;;;6.22;2.88;;;;;;;;;;5009174;28;20042;-80
2023/08/14 16:36:22;;;;;;;7.90;3.20;;;;;;;;;;5008916;28;20050;-78